createdAt,value
2018-02-22T00:01:12.957Z,87.00
2018-02-22T00:03:40.482Z,87.40
2018-02-22T00:06:08.041Z,87.20
2018-02-22T00:08:35.576Z,86.30
2018-02-22T00:11:03.921Z,86.90
2018-02-22T00:13:31.464Z,86.90
2018-02-22T00:15:59.020Z,86.90
2018-02-22T00:18:26.566Z,86.70
2018-02-22T00:20:54.089Z,86.30
2018-02-22T00:23:22.397Z,86.60
2018-02-22T00:25:49.931Z,86.70
2018-02-22T00:28:18.264Z,86.60
2018-02-22T00:30:45.821Z,86.60
2018-02-22T00:33:13.384Z,86.60
2018-02-22T00:35:40.913Z,86.60
2018-02-22T00:38:08.468Z,86.40
2018-02-22T00:40:36.028Z,86.60
2018-02-22T00:43:03.602Z,86.50
2018-02-22T00:45:31.153Z,85.20
2018-02-22T00:47:58.687Z,85.20
2018-02-22T00:50:26.998Z,86.20
2018-02-22T00:52:54.549Z,86.20
2018-02-22T00:55:22.103Z,86.40
2018-02-22T00:57:49.649Z,86.60
2018-02-22T01:00:17.219Z,86.80
2018-02-22T01:02:44.765Z,87.00
2018-02-22T01:05:12.358Z,87.00
2018-02-22T01:07:39.894Z,87.20
2018-02-22T01:10:07.440Z,87.30
2018-02-22T01:12:35.760Z,87.50
2018-02-22T01:15:03.883Z,87.50
2018-02-22T01:17:32.206Z,87.60
2018-02-22T01:20:00.094Z,87.60
2018-02-22T01:22:27.667Z,87.70
2018-02-22T01:24:55.196Z,87.40
2018-02-22T01:27:22.749Z,87.80
2018-02-22T01:29:50.284Z,87.10
2018-02-22T01:32:17.842Z,87.10
2018-02-22T01:34:45.384Z,87.40
2018-02-22T01:37:13.690Z,87.70
2018-02-22T01:39:41.251Z,87.60
2018-02-22T01:42:08.785Z,88.00
2018-02-22T01:44:37.099Z,87.70
2018-02-22T01:47:04.637Z,87.70
2018-02-22T01:49:32.198Z,87.80
2018-02-22T01:51:59.718Z,88.20
2018-02-22T01:54:27.288Z,88.20
2018-02-22T01:56:55.589Z,87.90
2018-02-22T01:59:23.150Z,87.80
2018-02-22T02:01:50.712Z,87.30
2018-02-22T02:04:18.242Z,86.60
2018-02-22T02:06:46.563Z,88.00
2018-02-22T02:09:14.094Z,87.80
2018-02-22T02:11:42.402Z,87.90
2018-02-22T02:14:09.963Z,87.90
2018-02-22T02:16:37.520Z,88.30
2018-02-22T02:19:05.051Z,87.20
2018-02-22T02:21:32.627Z,87.90
2018-02-22T02:24:00.155Z,88.10
2018-02-22T02:26:28.447Z,88.60
2018-02-22T02:28:56.754Z,88.10
2018-02-22T02:31:24.312Z,88.10
2018-02-22T02:33:51.887Z,88.00
2018-02-22T02:36:19.419Z,87.80
2018-02-22T02:38:46.961Z,88.10
2018-02-22T02:41:15.278Z,89.00
2018-02-22T02:43:42.844Z,89.00
2018-02-22T02:46:10.390Z,89.10
2018-02-22T02:48:37.930Z,88.90
2018-02-22T02:51:05.483Z,88.60
2018-02-22T02:53:33.022Z,88.70
2018-02-22T02:56:01.373Z,88.40
2018-02-22T02:58:28.938Z,88.40
2018-02-22T03:00:56.518Z,88.40
2018-02-22T03:03:24.840Z,88.20
2018-02-22T03:05:52.397Z,88.30
2018-02-22T03:08:19.922Z,88.70
2018-02-22T03:10:48.261Z,89.10
2018-02-22T03:13:15.794Z,89.10
2018-02-22T03:15:43.484Z,88.90
2018-02-22T03:18:11.061Z,89.40
2018-02-22T03:20:39.369Z,88.60
2018-02-22T03:23:06.940Z,88.60
2018-02-22T03:25:34.482Z,88.70
2018-02-22T03:28:02.820Z,89.10
2018-02-22T03:30:30.363Z,89.10
2018-02-22T03:32:57.939Z,88.30
2018-02-22T03:35:25.508Z,88.60
2018-02-22T03:37:53.033Z,88.90
2018-02-22T03:40:20.585Z,88.80
2018-02-22T03:42:48.111Z,89.30
2018-02-22T03:45:16.419Z,88.80
2018-02-22T03:47:43.958Z,88.80
2018-02-22T03:50:11.542Z,89.20
2018-02-22T03:52:39.080Z,88.80
2018-02-22T03:55:06.636Z,89.10
2018-02-22T03:57:34.184Z,89.50
2018-02-22T04:00:02.501Z,89.90
2018-02-22T04:02:30.066Z,89.90
2018-02-22T04:04:57.614Z,89.30
2018-02-22T04:07:25.160Z,89.70
2018-02-22T04:09:52.678Z,89.20
2018-02-22T04:12:20.244Z,89.60
2018-02-22T04:14:48.554Z,89.50
2018-02-22T04:17:16.116Z,89.50
2018-02-22T04:19:43.684Z,90.00
2018-02-22T04:22:11.219Z,90.30
2018-02-22T04:24:38.766Z,90.20
2018-02-22T04:27:07.112Z,90.20
2018-02-22T04:29:34.658Z,90.20
2018-02-22T04:32:02.204Z,90.10
2018-02-22T04:34:29.759Z,89.90
2018-02-22T04:36:57.307Z,90.00
2018-02-22T04:39:24.828Z,90.00
2018-02-22T04:41:52.378Z,89.40
2018-02-22T04:44:19.904Z,89.00
2018-02-22T04:46:47.452Z,88.70
2018-02-22T04:49:15.060Z,88.80
2018-02-22T04:51:42.593Z,88.30
2018-02-22T04:54:10.160Z,87.80
2018-02-22T04:56:37.732Z,89.00
2018-02-22T04:59:05.282Z,87.30
2018-02-22T05:01:34.312Z,88.00
2018-02-22T05:04:02.656Z,86.90
2018-02-22T05:06:30.190Z,86.90
2018-02-22T05:08:57.729Z,87.50
2018-02-22T05:11:25.307Z,87.00
2018-02-22T05:13:52.847Z,86.40
2018-02-22T05:16:20.384Z,85.80
2018-02-22T05:18:48.714Z,85.60
2018-02-22T05:21:16.247Z,85.60
2018-02-22T05:23:43.795Z,85.90
2018-02-22T05:26:11.386Z,85.60
2018-02-22T05:28:38.936Z,85.70
2018-02-22T05:31:07.341Z,85.70
2018-02-22T05:33:34.922Z,84.90
2018-02-22T05:36:03.221Z,85.40
2018-02-22T05:38:31.537Z,85.40
2018-02-22T05:40:59.110Z,85.40
2018-02-22T05:43:26.651Z,85.50
2018-02-22T05:45:54.185Z,85.20
2018-02-22T05:48:21.767Z,85.40
2018-02-22T05:50:49.315Z,85.70
2018-02-22T05:53:16.856Z,86.10
2018-02-22T05:55:45.198Z,85.50
2018-02-22T05:58:12.750Z,85.40
2018-02-22T06:00:40.286Z,86.20
2018-02-22T06:03:07.852Z,85.60
2018-02-22T06:05:35.768Z,85.40
2018-02-22T06:08:04.514Z,85.20
2018-02-22T06:10:32.981Z,85.90
2018-02-22T06:13:00.525Z,85.90
2018-02-22T06:15:28.052Z,85.40
2018-02-22T06:17:56.384Z,85.60
2018-02-22T06:20:23.914Z,85.60
2018-02-22T06:22:51.468Z,85.50
2018-02-22T06:25:19.054Z,85.80
2018-02-22T06:27:46.582Z,86.40
2018-02-22T06:30:14.889Z,85.80
2018-02-22T06:32:42.441Z,85.80
2018-02-22T06:35:09.959Z,85.70
2018-02-22T06:37:38.260Z,87.10
2018-02-22T06:40:05.831Z,87.00
2018-02-22T06:42:33.367Z,86.40
2018-02-22T06:45:01.664Z,86.40
2018-02-22T06:47:29.233Z,86.50
2018-02-22T06:49:56.795Z,86.10
2018-02-22T06:52:24.392Z,85.90
2018-02-22T06:54:51.969Z,86.20
2018-02-22T06:57:20.303Z,86.10
2018-02-22T06:59:47.841Z,86.00
2018-02-22T07:02:15.401Z,85.60
2018-02-22T07:04:42.945Z,85.90
2018-02-22T07:07:10.465Z,85.60
2018-02-22T07:09:38.028Z,86.40
2018-02-22T07:12:05.559Z,86.90
2018-02-22T07:14:33.095Z,86.20
2018-02-22T07:17:00.651Z,86.70
2018-02-22T07:19:28.183Z,86.60
2018-02-22T07:21:56.521Z,86.70
2018-02-22T07:24:24.168Z,86.70
2018-02-22T07:26:51.759Z,86.50
2018-02-22T07:29:19.278Z,86.60
2018-02-22T07:31:46.832Z,86.60
2018-02-22T07:34:14.368Z,86.70
2018-02-22T07:36:42.694Z,87.10
2018-02-22T07:39:10.264Z,87.10
2018-02-22T07:41:37.796Z,87.30
2018-02-22T07:44:05.358Z,86.60
2018-02-22T07:46:32.926Z,86.30
2018-02-22T07:49:00.471Z,86.30
2018-02-22T07:51:28.015Z,86.10
2018-02-22T07:53:55.587Z,86.30
2018-02-22T07:56:23.114Z,86.70
2018-02-22T07:58:51.410Z,87.00
2018-02-22T08:01:18.985Z,87.00
2018-02-22T08:03:46.510Z,87.10
2018-02-22T08:06:14.823Z,87.20
2018-02-22T08:08:42.374Z,87.20
2018-02-22T08:11:09.985Z,87.20
2018-02-22T08:13:37.529Z,87.10
2018-02-22T08:16:05.099Z,87.50
2018-02-22T08:18:32.627Z,87.50
2018-02-22T08:21:00.156Z,87.80
2018-02-22T08:23:28.487Z,87.80
2018-02-22T08:25:56.020Z,87.80
2018-02-22T08:28:23.554Z,87.90
2018-02-22T08:30:51.892Z,88.00
2018-02-22T08:33:19.410Z,88.00
2018-02-22T08:35:47.696Z,87.40
2018-02-22T08:38:15.278Z,87.40
2018-02-22T08:40:42.824Z,88.80
2018-02-22T08:43:10.891Z,87.80
2018-02-22T08:45:38.507Z,87.50
2018-02-22T08:48:06.048Z,89.10
2018-02-22T08:50:33.581Z,88.70
2018-02-22T08:53:01.146Z,89.00
2018-02-22T08:55:28.672Z,88.10
2018-02-22T08:57:56.200Z,88.00
2018-02-22T09:00:23.781Z,88.20
2018-02-22T09:02:52.096Z,87.40
2018-02-22T09:05:19.646Z,87.40
2018-02-22T09:07:47.211Z,88.10
2018-02-22T09:10:14.738Z,88.00
2018-02-22T09:12:43.029Z,87.60
2018-02-22T09:15:10.601Z,87.60
2018-02-22T09:17:38.151Z,89.40
2018-02-22T09:20:05.683Z,89.30
2018-02-22T09:22:34.151Z,88.10
2018-02-22T09:25:02.097Z,88.10
2018-02-22T09:27:29.637Z,89.00
2018-02-22T09:29:57.201Z,88.00
2018-02-22T09:32:24.767Z,87.50
2018-02-22T09:34:52.317Z,89.40
2018-02-22T09:37:19.895Z,87.80
2018-02-22T09:39:47.436Z,89.00
2018-02-22T09:42:14.973Z,87.00
2018-02-22T09:44:42.515Z,86.40
2018-02-22T09:47:10.830Z,85.90
2018-02-22T09:49:38.369Z,85.80
2018-02-22T09:52:05.929Z,86.00
2018-02-22T09:54:33.471Z,86.50
2018-02-22T09:57:01.780Z,84.70
2018-02-22T09:59:29.365Z,84.70
2018-02-22T10:01:56.930Z,85.30
2018-02-22T10:04:24.489Z,85.00
2018-02-22T10:06:52.046Z,85.60
2018-02-22T10:09:19.576Z,84.20
2018-02-22T10:11:47.123Z,84.90
2018-02-22T10:14:14.687Z,85.00
2018-02-22T10:16:42.238Z,85.70
2018-02-22T10:19:09.787Z,85.00
2018-02-22T10:21:38.117Z,85.00
2018-02-22T10:24:05.636Z,85.00
2018-02-22T10:26:33.188Z,85.40
2018-02-22T10:29:00.767Z,86.20
2018-02-22T10:31:28.317Z,86.50
2018-02-22T10:33:55.856Z,85.50
2018-02-22T10:36:24.183Z,86.60
2018-02-22T10:38:51.718Z,86.70
2018-02-22T10:41:19.296Z,86.80
2018-02-22T10:43:46.879Z,86.30
2018-02-22T10:46:14.422Z,85.20
2018-02-22T10:48:41.960Z,84.40
2018-02-22T10:51:09.529Z,85.10
2018-02-22T10:53:37.074Z,85.20
2018-02-22T10:56:04.638Z,85.70
2018-02-22T10:58:32.206Z,85.70
2018-02-22T11:01:05.442Z,85.00
2018-02-22T11:03:33.789Z,85.70
2018-02-22T11:06:01.320Z,85.70
2018-02-22T11:08:28.851Z,84.80
2018-02-22T11:10:57.190Z,85.10
2018-02-22T11:13:24.737Z,85.10
2018-02-22T11:15:52.272Z,85.50
2018-02-22T11:18:19.821Z,85.20
2018-02-22T11:20:48.116Z,85.00
2018-02-22T11:23:15.647Z,84.90
2018-02-22T11:25:43.980Z,85.60
2018-02-22T11:28:11.516Z,85.70
2018-02-22T11:30:39.057Z,84.90
2018-02-22T11:33:06.629Z,84.30
2018-02-22T11:35:34.179Z,85.70
2018-02-22T11:38:01.717Z,85.50
2018-02-22T11:40:30.052Z,84.90
2018-02-22T11:42:57.576Z,85.00
2018-02-22T11:45:25.137Z,83.40
2018-02-22T11:47:52.695Z,83.30
2018-02-22T11:50:20.220Z,84.50
2018-02-22T11:52:47.750Z,84.90
2018-02-22T11:55:15.305Z,84.20
2018-02-22T11:57:42.834Z,85.70
2018-02-22T12:00:10.371Z,84.20
2018-02-22T12:02:38.699Z,83.00
2018-02-22T12:05:06.219Z,83.00
2018-02-22T12:07:33.729Z,81.90
2018-02-22T12:10:01.296Z,83.10
2018-02-22T12:12:28.823Z,83.00
2018-02-22T12:14:56.356Z,81.30
2018-02-22T12:17:23.915Z,81.10
2018-02-22T12:19:51.451Z,80.50
2018-02-22T12:22:19.751Z,80.70
2018-02-22T12:24:47.321Z,80.70
2018-02-22T12:27:14.864Z,80.10
2018-02-22T12:29:43.158Z,81.60
2018-02-22T12:32:10.731Z,81.60
2018-02-22T12:34:38.280Z,80.00
2018-02-22T12:37:05.806Z,80.40
2018-02-22T12:39:34.123Z,81.10
2018-02-22T12:42:01.641Z,81.10
2018-02-22T12:44:29.943Z,80.20
2018-02-22T12:46:57.515Z,80.20
2018-02-22T12:49:25.115Z,80.80
2018-02-22T12:51:52.629Z,79.70
2018-02-22T12:54:20.187Z,80.80
2018-02-22T12:56:47.698Z,80.10
2018-02-22T12:59:15.228Z,79.50
2018-02-22T13:01:42.779Z,78.80
2018-02-22T13:04:10.311Z,77.60
2018-02-22T13:06:37.838Z,77.20
2018-02-22T13:09:05.404Z,77.70
2018-02-22T13:14:07.752Z,78.30
2018-02-22T13:16:35.283Z,79.90
2018-02-22T13:19:02.823Z,80.50
2018-02-22T13:21:31.147Z,80.50
2018-02-22T13:23:58.704Z,80.40
2018-02-22T13:26:26.451Z,80.40
2018-02-22T13:28:54.032Z,80.80
2018-02-22T13:31:21.592Z,80.20
2018-02-22T13:34:01.099Z,79.60
2018-02-22T13:36:28.984Z,79.80
2018-02-22T13:39:11.514Z,79.80
2018-02-22T13:41:39.039Z,80.80
2018-02-22T13:47:14.214Z,81.90
2018-02-22T13:49:53.649Z,82.00
2018-02-22T13:52:21.266Z,80.10
2018-02-22T13:54:48.748Z,80.80
2018-02-22T13:57:20.201Z,80.70
2018-02-22T13:59:47.750Z,81.30
2018-02-22T14:02:22.244Z,80.20
2018-02-22T14:04:49.779Z,80.80
2018-02-22T14:07:17.317Z,81.50
2018-02-22T14:09:44.871Z,81.20
2018-02-22T14:12:12.457Z,81.10
2018-02-22T14:14:39.993Z,80.90
2018-02-22T14:17:07.542Z,81.40
2018-02-22T14:19:35.056Z,81.20
2018-02-22T14:22:02.607Z,81.40
2018-02-22T14:24:30.179Z,81.10
2018-02-22T14:26:57.708Z,81.20
2018-02-22T14:29:25.226Z,80.10
2018-02-22T14:31:52.780Z,81.20
2018-02-22T14:34:20.330Z,80.70
2018-02-22T14:36:48.632Z,81.10
2018-02-22T14:39:16.187Z,81.10
2018-02-22T14:41:43.717Z,81.40
2018-02-22T14:44:12.037Z,82.00
2018-02-22T14:46:39.611Z,82.00
2018-02-22T14:49:07.159Z,82.30
2018-02-22T14:51:34.709Z,82.50
2018-02-22T14:54:02.305Z,81.90
2018-02-22T14:56:29.859Z,82.50
2018-02-22T14:58:57.387Z,82.40
2018-02-22T15:01:24.996Z,83.00
2018-02-22T15:03:52.523Z,82.40
2018-02-22T15:06:20.067Z,83.30
2018-02-22T15:08:47.617Z,84.00
2018-02-22T15:11:15.192Z,83.60
2018-02-22T15:13:42.723Z,82.70
2018-02-22T15:16:11.039Z,83.90
2018-02-22T15:18:38.605Z,83.90
2018-02-22T15:21:06.132Z,82.60
2018-02-22T15:26:07.578Z,83.00
2018-02-22T15:28:35.931Z,82.00
2018-02-22T15:31:03.466Z,81.90
2018-02-22T15:33:31.020Z,82.40
2018-02-22T15:35:58.596Z,83.00
2018-02-22T15:38:26.161Z,83.10
2018-02-22T15:40:53.694Z,82.60
2018-02-22T15:43:21.276Z,82.80
2018-02-22T15:45:48.819Z,83.20
2018-02-22T15:48:16.361Z,83.20
2018-02-22T15:50:43.934Z,83.80
2018-02-22T15:53:11.475Z,82.60
2018-02-22T15:55:39.003Z,82.90
2018-02-22T15:58:07.351Z,83.20
2018-02-22T16:00:34.899Z,83.20
2018-02-22T16:03:02.441Z,83.80
2018-02-22T16:05:30.973Z,83.70
2018-02-22T16:07:58.606Z,84.10
2018-02-22T16:10:26.156Z,84.60
2018-02-22T16:12:53.723Z,84.10
2018-02-22T16:15:21.257Z,84.40
2018-02-22T16:17:48.799Z,84.40
2018-02-22T16:20:16.396Z,84.10
2018-02-22T16:22:43.921Z,85.20
2018-02-22T16:25:11.449Z,84.90
2018-02-22T16:27:39.064Z,85.00
2018-02-22T16:30:06.589Z,86.10
2018-02-22T16:32:34.879Z,85.60
2018-02-22T16:35:02.469Z,85.50
2018-02-22T16:37:30.003Z,85.30
2018-02-22T16:39:57.521Z,85.20
2018-02-22T16:42:25.098Z,85.30
2018-02-22T16:44:53.398Z,84.20
2018-02-22T16:47:20.922Z,84.20
2018-02-22T16:49:48.489Z,84.10
2018-02-22T16:52:16.798Z,84.30
2018-02-22T16:54:44.329Z,84.30
2018-02-22T16:57:12.743Z,84.40
2018-02-22T16:59:40.262Z,84.40
2018-02-22T17:02:08.568Z,85.20
2018-02-22T17:04:36.128Z,85.20
2018-02-22T17:07:03.680Z,84.40
2018-02-22T17:09:31.221Z,84.40
2018-02-22T17:11:59.586Z,84.20
2018-02-22T17:14:27.118Z,84.10
2018-02-22T17:16:54.713Z,84.60
2018-02-22T17:19:23.068Z,84.90
2018-02-22T17:21:50.598Z,84.90
2018-02-22T17:24:18.150Z,85.10
2018-02-22T17:26:51.384Z,85.00
2018-02-22T17:29:24.536Z,85.40
2018-02-22T17:31:57.741Z,85.00
2018-02-22T17:34:25.274Z,85.60
2018-02-22T17:39:58.284Z,86.00
2018-02-22T17:42:25.838Z,86.00
2018-02-22T17:44:53.380Z,85.40
2018-02-22T17:47:21.675Z,85.50
2018-02-22T17:49:49.247Z,85.60
2018-02-22T17:52:16.764Z,85.60
2018-02-22T17:54:45.059Z,85.90
2018-02-22T17:57:12.647Z,85.80
2018-02-22T17:59:40.207Z,85.70
2018-02-22T18:02:07.762Z,85.60
2018-02-22T18:04:35.334Z,86.00
2018-02-22T18:07:02.867Z,85.60
2018-02-22T18:09:30.427Z,85.60
2018-02-22T18:11:57.992Z,85.90
2018-02-22T18:14:26.375Z,85.80
2018-02-22T18:16:53.911Z,85.80
2018-02-22T18:19:21.474Z,85.40
2018-02-22T18:21:49.022Z,84.90
2018-02-22T18:24:17.316Z,84.80
2018-02-22T18:26:44.867Z,84.80
2018-02-22T18:29:12.407Z,85.30
2018-02-22T18:31:40.724Z,84.60
2018-02-22T18:34:08.274Z,84.50
2018-02-22T18:36:35.806Z,85.00
2018-02-22T18:39:09.736Z,85.40
2018-02-22T18:41:43.024Z,85.40
2018-02-22T18:44:16.304Z,85.40
2018-02-22T18:46:44.605Z,85.50
2018-02-22T18:49:12.140Z,85.50
2018-02-22T18:51:40.479Z,86.30
2018-02-22T18:54:08.018Z,86.20
2018-02-22T18:56:35.545Z,86.30
2018-02-22T18:59:03.868Z,86.10
2018-02-22T19:01:31.409Z,86.00
2018-02-22T19:03:58.959Z,86.50
2018-02-22T19:06:26.512Z,86.50
2018-02-22T19:08:54.044Z,86.20
2018-02-22T19:11:22.344Z,86.20
2018-02-22T19:13:49.908Z,86.20
2018-02-22T19:16:17.459Z,86.50
2018-02-22T19:18:44.995Z,86.10
2018-02-22T19:21:13.326Z,86.20
2018-02-22T19:23:40.866Z,86.20
2018-02-22T19:26:08.426Z,86.20
2018-02-22T19:28:36.020Z,86.20
2018-02-22T19:31:03.571Z,86.60
2018-02-22T19:33:31.099Z,86.60
2018-02-22T19:35:58.653Z,86.40
2018-02-22T19:38:26.180Z,87.10
2018-02-22T19:40:54.473Z,87.00
2018-02-22T19:43:22.811Z,86.70
2018-02-22T19:45:50.367Z,86.70
2018-02-22T19:48:17.908Z,86.90
2018-02-22T19:50:45.483Z,86.90
2018-02-22T19:53:13.025Z,86.80
2018-02-22T19:55:40.569Z,87.20
2018-02-22T19:58:08.123Z,87.00
2018-02-22T20:00:35.691Z,87.00
2018-02-22T20:03:03.208Z,87.10
2018-02-22T20:05:30.759Z,87.00
2018-02-22T20:07:58.314Z,87.00
2018-02-22T20:10:25.855Z,87.00
2018-02-22T20:12:54.162Z,87.60
2018-02-22T20:15:21.706Z,87.60
2018-02-22T20:17:49.314Z,87.10
2018-02-22T20:20:16.874Z,87.20
2018-02-22T20:22:44.425Z,87.10
2018-02-22T20:25:11.989Z,87.30
2018-02-22T20:27:40.319Z,87.00
2018-02-22T20:30:07.869Z,87.00
2018-02-22T20:32:35.649Z,87.00
2018-02-22T20:35:03.223Z,87.10
2018-02-22T20:37:30.760Z,87.00
2018-02-22T20:39:58.304Z,87.60
2018-02-22T20:42:25.874Z,87.40
2018-02-22T20:44:53.426Z,86.90
2018-02-22T20:47:20.990Z,87.00
2018-02-22T20:49:48.555Z,86.90
2018-02-22T20:52:16.813Z,87.00
2018-02-22T20:54:51.112Z,86.80
2018-02-22T20:57:18.651Z,87.00
2018-02-22T20:59:46.980Z,87.40
2018-02-22T21:02:14.548Z,87.40
2018-02-22T21:04:42.076Z,88.20
2018-02-22T21:07:10.608Z,87.80
2018-02-22T21:09:38.259Z,87.40
2018-02-22T21:12:05.808Z,87.20
2018-02-22T21:14:33.334Z,87.50
2018-02-22T21:17:00.883Z,87.10
2018-02-22T21:19:28.428Z,87.20
2018-02-22T21:21:56.717Z,87.40
2018-02-22T21:24:24.278Z,87.50
2018-02-22T21:26:51.798Z,87.40
2018-02-22T21:29:19.350Z,87.00
2018-02-22T21:31:46.930Z,87.00
2018-02-22T21:34:15.244Z,87.30
2018-02-22T21:36:42.780Z,87.30
2018-02-22T21:39:11.110Z,87.80
2018-02-22T21:41:38.645Z,87.80
2018-02-22T21:44:06.185Z,87.20
2018-02-22T21:46:33.744Z,87.20
2018-02-22T21:49:02.163Z,87.40
2018-02-22T21:51:29.722Z,86.90
2018-02-22T21:53:57.295Z,87.40
2018-02-22T21:56:24.822Z,87.00
2018-02-22T21:58:52.365Z,86.80
2018-02-22T22:01:19.916Z,87.10
2018-02-22T22:03:48.229Z,87.00
2018-02-22T22:06:15.753Z,87.00
2018-02-22T22:08:43.330Z,87.50
2018-02-22T22:11:10.872Z,87.30
2018-02-22T22:13:38.419Z,87.40
2018-02-22T22:16:06.742Z,87.40
2018-02-22T22:18:34.270Z,87.40
2018-02-22T22:21:01.813Z,86.80
2018-02-22T22:23:30.143Z,87.30
2018-02-22T22:25:57.662Z,87.40
2018-02-22T22:28:25.968Z,87.00
2018-02-22T22:30:53.528Z,87.00
2018-02-22T22:33:21.064Z,86.50
2018-02-22T22:35:48.606Z,86.90
2018-02-22T22:38:16.943Z,87.20
2018-02-22T22:40:44.468Z,87.20
2018-02-22T22:43:12.028Z,86.90
2018-02-22T22:45:39.653Z,86.80
2018-02-22T22:48:07.968Z,87.40
2018-02-22T22:50:35.576Z,87.30
2018-02-22T22:53:03.141Z,87.30
2018-02-22T22:55:30.667Z,87.30
2018-02-22T22:57:58.202Z,87.10
2018-02-22T23:00:25.755Z,87.50
2018-02-22T23:02:53.266Z,87.10
2018-02-22T23:05:20.793Z,87.30
2018-02-22T23:07:48.357Z,86.90
2018-02-22T23:10:15.889Z,87.30
2018-02-22T23:12:43.452Z,87.40
2018-02-22T23:15:11.032Z,87.90
2018-02-22T23:17:38.565Z,87.00
2018-02-22T23:20:06.116Z,86.90
2018-02-22T23:22:33.686Z,88.00
2018-02-22T23:25:01.221Z,87.60
2018-02-22T23:27:29.515Z,88.00
2018-02-22T23:29:57.833Z,87.20
2018-02-22T23:32:25.368Z,87.20
2018-02-22T23:34:52.946Z,87.00
2018-02-22T23:37:20.496Z,87.10
2018-02-22T23:39:48.061Z,86.60
2018-02-22T23:42:25.535Z,87.00
2018-02-22T23:44:53.062Z,86.70
2018-02-22T23:47:21.370Z,87.00
2018-02-22T23:49:48.913Z,86.90
2018-02-22T23:52:16.454Z,86.70
2018-02-22T23:54:44.781Z,86.60
2018-02-22T23:57:12.358Z,86.50
2018-02-22T23:59:39.908Z,86.80
